Hauptseite
METAR-TAF:

METAR-TAF

Flughäfen :

Washington, Virginia, Vereinigte Staaten

Washington Dulles International Airport

Breite: 38-56-05N, Länge: 077-26-51W, Höhe: 95 m

Beobachtung

Neuester Wetterbericht von vor 25 Minuten, um 13:52 UTC
Windstille
Temperatur 18°C
Luftfeuchtigkeit 64%
Luftdruck 1025 hPa
Sichtweite: 16.1 km
Durchbrochene Bewölkung in der Höhe von 25000 ft

METAR: KIAD 201352Z 00000KT 10SM BKN250 18/11 A3027 RMK AO2 SLP248 T01830106

Zeit: 10:17 (14:17 UTC)

Prognose

Neuester Wetterbericht von vor 2 Stunden und 41 Minuten, um 11:36 UTC
Gültige Prognose vom 20 um 12 UTC bis 21 um 18 UTC
Wind 6 kt aus Nordwest
Sichtweite: 10 km
Leicht bewölkt in der Höhe von 25000 ft
Ab 21 um 1500 UTC
Wind 4 kt aus Ost
Sichtweite: 10 km
Leicht bewölkt in der Höhe von 25000 ft

TAF: KIAD 201136Z 2012/2118 31006KT P6SM FEW250 FM211500 09004KT P6SM FEW250

Wetterbeobachtungen und Prognosen von mehr als 4000 Flughäfen (METAR und TAF Bericht).

Die verfügbaren Stationen werden durch gelbe und rote Markierungen auf der Karte dargestellt.

Führen Sie die Maus auf sie, um den Namen der Station zu sehen.

Darauf klicken, um die Beobachtung von Wetterbeobachtungen und Prognosen zu sehen.

Um die Karte zu ändern : klicken Sie auf den grünen Tasten mit einem schwarzen Kreuz Zum Vergrößern, auf den grünen Button mit einem Gedankenstrich zu verkleinern, oder auf die grünen Pfeile für benachbarte Karten.


METAR-TAF: